アクトベ の空港の天気 - METARとTAF

アクトベ空港 ( UATT / AKX ) - カザフスタン アクトベ
飛行場実況気象(Metar)
観測時間-
風向・風速- -
視程-
天気現象-
-
気温-
湿度-
気圧-
METAR-
過去の天気等 Google飛行場航空写真 Wunderground天気予報

過去48時間のMETAR

飛行場予報(TAF)
発表時間: 7/15 10:00 ORAT (7/15 05:00 UTC)
予報対象時間: 15日11時 ORAT ~ 16日11時 ORAT
風向・風速南東 10m/s
視程10km以上
なし
15日19時 ORAT ~ 15日21時 ORAT に徐々に
風向・風速東南東 3m/s
TAF UATT 150500Z 1506/1606 13010MPS CAVOK TX40/1511Z TN21/1602Z
BECMG 1514/1516 11003MPS